Hauptseite
METAR-TAF:

METAR-TAF

Flughäfen :

Memmingen, Deutschland

Breite: 47-59-33N, Länge: 10-14-37E, Höhe: 633 m

Beobachtung

Neuester Wetterbericht von vor 36 Minuten, um 08:20 UTC
Wind 3 kt aus Süd/Südwest, variierte zwischen Süd und West/Südwest
Temperatur 4°C
Luftfeuchtigkeit 100%
Luftdruck 1022 hPa
Sichtweite: 0900 m
Aufgelockert bewölkt in der Höhe von 200 ft
Nebelschwaden

METAR: EDJA 280820Z 21003KT 180V240 2500 0900E R24/0275N BCFG SCT002 04/04 Q1022

Zeit: 10:56 (08:56 UTC)

Prognose

Neuester Wetterbericht von vor 56 Minuten, um 08:00 UTC
Gültige Prognose vom 28 um 09 UTC bis 28 um 18 UTC
Wind 3 kt aus unterschiedlichen Richtungen
Sichtweite: 0800 m
in der Höhe von 200 ft
Nebel
Übergehend zu
vom 28 um 09 UTC bis 28 um 11 UTC
Sichtweite 10 km oder mehr
keine Wolken unter 1500 m und keine Kumulonimbus oder Gewitterwolken

TAF: EDJA 280800Z 2809/2818 VRB03KT 0800 FG VV002 BECMG 2809/2811 CAVOK

Wetterbeobachtungen und Prognosen von mehr als 4000 Flughäfen (METAR und TAF Bericht).

Die verfügbaren Stationen werden durch gelbe und rote Markierungen auf der Karte dargestellt.

Führen Sie die Maus auf sie, um den Namen der Station zu sehen.

Darauf klicken, um die Beobachtung von Wetterbeobachtungen und Prognosen zu sehen.

Um die Karte zu ändern : klicken Sie auf den grünen Tasten mit einem schwarzen Kreuz Zum Vergrößern, auf den grünen Button mit einem Gedankenstrich zu verkleinern, oder auf die grünen Pfeile für benachbarte Karten.


METAR-TAF: